sensor_id;sensor_type;location;lat;lon;timestamp;P1;durP1;ratioP1;P2;durP2;ratioP2
12412;SDS011;13877;18.896;-99.222;2023-04-01T00:01:47;18.13;;;8.95;;
12412;SDS011;13877;18.896;-99.222;2023-04-01T00:04:14;18.10;;;9.18;;
12412;SDS011;13877;18.896;-99.222;2023-04-01T00:06:41;16.30;;;9.18;;
12412;SDS011;13877;18.896;-99.222;2023-04-01T00:09:08;26.02;;;9.45;;
12412;SDS011;13877;18.896;-99.222;2023-04-01T00:11:35;22.58;;;9.07;;
12412;SDS011;13877;18.896;-99.222;2023-04-01T00:14:03;20.90;;;8.57;;
12412;SDS011;13877;18.896;-99.222;2023-04-01T00:16:30;25.13;;;8.80;;
12412;SDS011;13877;18.896;-99.222;2023-04-01T00:18:57;19.23;;;8.88;;
12412;SDS011;13877;18.896;-99.222;2023-04-01T00:21:25;38.47;;;10.15;;
12412;SDS011;13877;18.896;-99.222;2023-04-01T00:23:52;28.15;;;10.05;;
12412;SDS011;13877;18.896;-99.222;2023-04-01T00:26:19;21.90;;;8.90;;
12412;SDS011;13877;18.896;-99.222;2023-04-01T00:28:47;23.52;;;8.73;;
12412;SDS011;13877;18.896;-99.222;2023-04-01T00:31:15;19.70;;;10.05;;
12412;SDS011;13877;18.896;-99.222;2023-04-01T00:33:42;18.73;;;9.10;;
12412;SDS011;13877;18.896;-99.222;2023-04-01T00:36:19;21.08;;;9.07;;
12412;SDS011;13877;18.896;-99.222;2023-04-01T00:41:18;25.08;;;8.75;;
12412;SDS011;13877;18.896;-99.222;2023-04-01T00:43:47;23.70;;;8.82;;
12412;SDS011;13877;18.896;-99.222;2023-04-01T00:46:16;27.08;;;9.30;;
12412;SDS011;13877;18.896;-99.222;2023-04-01T00:48:53;27.95;;;10.23;;
12412;SDS011;13877;18.896;-99.222;2023-04-01T00:51:23;19.40;;;8.95;;
12412;SDS011;13877;18.896;-99.222;2023-04-01T00:53:53;15.95;;;9.13;;
12412;SDS011;13877;18.896;-99.222;2023-04-01T00:56:25;31.23;;;9.63;;
12412;SDS011;13877;18.896;-99.222;2023-04-01T00:58:58;14.55;;;8.75;;
12412;SDS011;13877;18.896;-99.222;2023-04-01T01:03:58;25.85;;;8.93;;
12412;SDS011;13877;18.896;-99.222;2023-04-01T01:12:00;20.05;;;8.73;;
12412;SDS011;13877;18.896;-99.222;2023-04-01T01:17:12;26.70;;;8.85;;
12412;SDS011;13877;18.896;-99.222;2023-04-01T01:19:53;22.05;;;9.05;;
12412;SDS011;13877;18.896;-99.222;2023-04-01T01:27:26;27.02;;;8.73;;
12412;SDS011;13877;18.896;-99.222;2023-04-01T01:30:08;16.90;;;9.05;;
12412;SDS011;13877;18.896;-99.222;2023-04-01T01:38:18;15.20;;;8.20;;
12412;SDS011;13877;18.896;-99.222;2023-04-01T01:40:59;23.05;;;9.32;;
12412;SDS011;13877;18.896;-99.222;2023-04-01T01:43:33;22.90;;;10.80;;
12412;SDS011;13877;18.896;-99.222;2023-04-01T01:46:07;22.95;;;10.68;;
12412;SDS011;13877;18.896;-99.222;2023-04-01T01:48:41;26.25;;;10.80;;
12412;SDS011;13877;18.896;-99.222;2023-04-01T01:51:10;24.42;;;11.50;;
12412;SDS011;13877;18.896;-99.222;2023-04-01T01:53:37;30.88;;;11.98;;
12412;SDS011;13877;18.896;-99.222;2023-04-01T01:56:04;30.33;;;12.07;;
12412;SDS011;13877;18.896;-99.222;2023-04-01T01:58:47;28.88;;;11.85;;
12412;SDS011;13877;18.896;-99.222;2023-04-01T02:01:21;36.58;;;12.75;;
12412;SDS011;13877;18.896;-99.222;2023-04-01T02:03:53;30.23;;;13.32;;
12412;SDS011;13877;18.896;-99.222;2023-04-01T02:06:22;33.13;;;13.27;;
12412;SDS011;13877;18.896;-99.222;2023-04-01T02:11:27;32.17;;;13.57;;
12412;SDS011;13877;18.896;-99.222;2023-04-01T02:14:20;37.40;;;13.95;;
12412;SDS011;13877;18.896;-99.222;2023-04-01T02:16:53;33.00;;;13.35;;
12412;SDS011;13877;18.896;-99.222;2023-04-01T02:19:36;33.05;;;14.40;;
12412;SDS011;13877;18.896;-99.222;2023-04-01T02:22:06;34.72;;;15.32;;
12412;SDS011;13877;18.896;-99.222;2023-04-01T02:24:37;41.72;;;14.85;;
12412;SDS011;13877;18.896;-99.222;2023-04-01T02:27:08;38.35;;;14.70;;
12412;SDS011;13877;18.896;-99.222;2023-04-01T02:29:36;34.75;;;14.65;;
12412;SDS011;13877;18.896;-99.222;2023-04-01T02:32:07;32.72;;;14.13;;
12412;SDS011;13877;18.896;-99.222;2023-04-01T02:34:35;36.55;;;14.57;;
12412;SDS011;13877;18.896;-99.222;2023-04-01T02:37:03;37.55;;;14.45;;
12412;SDS011;13877;18.896;-99.222;2023-04-01T02:39:31;29.63;;;12.98;;
12412;SDS011;13877;18.896;-99.222;2023-04-01T02:41:58;33.10;;;12.88;;
12412;SDS011;13877;18.896;-99.222;2023-04-01T02:44:28;30.70;;;13.10;;
12412;SDS011;13877;18.896;-99.222;2023-04-01T02:46:55;34.90;;;13.48;;
12412;SDS011;13877;18.896;-99.222;2023-04-01T02:49:22;34.40;;;12.85;;
12412;SDS011;13877;18.896;-99.222;2023-04-01T02:51:48;28.40;;;13.63;;
12412;SDS011;13877;18.896;-99.222;2023-04-01T02:54:18;27.38;;;12.63;;
12412;SDS011;13877;18.896;-99.222;2023-04-01T02:56:45;28.85;;;13.23;;
12412;SDS011;13877;18.896;-99.222;2023-04-01T02:59:12;27.83;;;12.07;;
12412;SDS011;13877;18.896;-99.222;2023-04-01T03:01:39;32.45;;;12.68;;
12412;SDS011;13877;18.896;-99.222;2023-04-01T03:04:06;25.52;;;12.20;;
12412;SDS011;13877;18.896;-99.222;2023-04-01T03:06:33;20.10;;;11.85;;
12412;SDS011;13877;18.896;-99.222;2023-04-01T03:09:01;28.88;;;10.98;;
12412;SDS011;13877;18.896;-99.222;2023-04-01T03:11:28;33.35;;;12.13;;
12412;SDS011;13877;18.896;-99.222;2023-04-01T03:13:57;30.35;;;12.77;;
12412;SDS011;13877;18.896;-99.222;2023-04-01T03:16:24;29.63;;;11.88;;
12412;SDS011;13877;18.896;-99.222;2023-04-01T03:18:51;32.15;;;12.40;;
12412;SDS011;13877;18.896;-99.222;2023-04-01T03:21:20;28.08;;;12.45;;
12412;SDS011;13877;18.896;-99.222;2023-04-01T03:23:50;25.38;;;12.57;;
12412;SDS011;13877;18.896;-99.222;2023-04-01T03:26:18;27.67;;;12.35;;
12412;SDS011;13877;18.896;-99.222;2023-04-01T03:28:47;30.42;;;12.90;;
12412;SDS011;13877;18.896;-99.222;2023-04-01T03:31:14;32.30;;;12.60;;
12412;SDS011;13877;18.896;-99.222;2023-04-01T03:33:48;29.80;;;12.52;;
12412;SDS011;13877;18.896;-99.222;2023-04-01T03:36:16;39.75;;;12.95;;
12412;SDS011;13877;18.896;-99.222;2023-04-01T03:38:43;26.67;;;11.82;;
12412;SDS011;13877;18.896;-99.222;2023-04-01T03:41:16;32.08;;;12.68;;
12412;SDS011;13877;18.896;-99.222;2023-04-01T03:43:44;25.30;;;13.25;;
12412;SDS011;13877;18.896;-99.222;2023-04-01T03:46:16;29.30;;;12.02;;
12412;SDS011;13877;18.896;-99.222;2023-04-01T03:48:44;33.05;;;12.82;;
12412;SDS011;13877;18.896;-99.222;2023-04-01T03:51:11;25.20;;;12.73;;
12412;SDS011;13877;18.896;-99.222;2023-04-01T03:53:38;31.67;;;14.00;;
12412;SDS011;13877;18.896;-99.222;2023-04-01T03:56:06;28.85;;;14.40;;
12412;SDS011;13877;18.896;-99.222;2023-04-01T03:58:35;30.10;;;13.50;;
12412;SDS011;13877;18.896;-99.222;2023-04-01T04:01:12;27.55;;;13.13;;
12412;SDS011;13877;18.896;-99.222;2023-04-01T04:03:45;32.33;;;13.05;;
12412;SDS011;13877;18.896;-99.222;2023-04-01T04:06:15;26.15;;;13.98;;
12412;SDS011;13877;18.896;-99.222;2023-04-01T04:08:45;30.37;;;14.23;;
12412;SDS011;13877;18.896;-99.222;2023-04-01T04:11:12;24.58;;;13.05;;
12412;SDS011;13877;18.896;-99.222;2023-04-01T04:13:41;29.42;;;13.38;;
12412;SDS011;13877;18.896;-99.222;2023-04-01T04:16:10;35.30;;;13.25;;
12412;SDS011;13877;18.896;-99.222;2023-04-01T04:18:42;38.78;;;14.30;;
12412;SDS011;13877;18.896;-99.222;2023-04-01T04:21:11;34.83;;;15.07;;
12412;SDS011;13877;18.896;-99.222;2023-04-01T04:23:40;36.50;;;14.83;;
12412;SDS011;13877;18.896;-99.222;2023-04-01T04:26:10;40.33;;;16.15;;
12412;SDS011;13877;18.896;-99.222;2023-04-01T04:28:39;30.97;;;15.77;;
12412;SDS011;13877;18.896;-99.222;2023-04-01T04:31:08;36.33;;;15.52;;
12412;SDS011;13877;18.896;-99.222;2023-04-01T04:33:35;35.90;;;15.73;;
12412;SDS011;13877;18.896;-99.222;2023-04-01T04:36:03;36.05;;;16.08;;
12412;SDS011;13877;18.896;-99.222;2023-04-01T04:38:31;38.75;;;17.60;;
12412;SDS011;13877;18.896;-99.222;2023-04-01T04:40:58;44.97;;;17.85;;
12412;SDS011;13877;18.896;-99.222;2023-04-01T04:43:26;36.05;;;17.60;;
12412;SDS011;13877;18.896;-99.222;2023-04-01T04:45:53;36.05;;;16.80;;
12412;SDS011;13877;18.896;-99.222;2023-04-01T04:48:21;41.78;;;17.55;;
12412;SDS011;13877;18.896;-99.222;2023-04-01T04:50:49;33.65;;;16.77;;
12412;SDS011;13877;18.896;-99.222;2023-04-01T04:53:19;46.53;;;19.30;;
12412;SDS011;13877;18.896;-99.222;2023-04-01T04:55:46;36.80;;;18.08;;
12412;SDS011;13877;18.896;-99.222;2023-04-01T04:58:37;38.38;;;18.38;;
12412;SDS011;13877;18.896;-99.222;2023-04-01T05:01:11;43.83;;;17.15;;
12412;SDS011;13877;18.896;-99.222;2023-04-01T05:03:40;38.33;;;17.35;;
12412;SDS011;13877;18.896;-99.222;2023-04-01T05:06:09;46.67;;;19.27;;
12412;SDS011;13877;18.896;-99.222;2023-04-01T05:08:37;41.08;;;18.08;;
12412;SDS011;13877;18.896;-99.222;2023-04-01T05:11:10;43.15;;;19.50;;
12412;SDS011;13877;18.896;-99.222;2023-04-01T05:13:42;47.90;;;19.23;;
12412;SDS011;13877;18.896;-99.222;2023-04-01T05:16:13;43.47;;;19.38;;
12412;SDS011;13877;18.896;-99.222;2023-04-01T05:18:42;45.72;;;18.55;;
12412;SDS011;13877;18.896;-99.222;2023-04-01T05:21:10;41.40;;;18.67;;
12412;SDS011;13877;18.896;-99.222;2023-04-01T05:23:38;39.15;;;18.13;;
12412;SDS011;13877;18.896;-99.222;2023-04-01T05:26:10;34.03;;;17.30;;
12412;SDS011;13877;18.896;-99.222;2023-04-01T05:28:39;41.75;;;17.30;;
12412;SDS011;13877;18.896;-99.222;2023-04-01T05:31:07;46.78;;;17.48;;
12412;SDS011;13877;18.896;-99.222;2023-04-01T05:33:37;36.63;;;17.87;;
12412;SDS011;13877;18.896;-99.222;2023-04-01T05:36:14;37.15;;;18.08;;
12412;SDS011;13877;18.896;-99.222;2023-04-01T05:38:43;38.50;;;18.20;;
12412;SDS011;13877;18.896;-99.222;2023-04-01T05:41:12;41.88;;;19.10;;
12412;SDS011;13877;18.896;-99.222;2023-04-01T05:43:44;42.72;;;17.92;;
12412;SDS011;13877;18.896;-99.222;2023-04-01T05:46:46;43.95;;;18.60;;
12412;SDS011;13877;18.896;-99.222;2023-04-01T05:49:21;47.00;;;19.55;;
12412;SDS011;13877;18.896;-99.222;2023-04-01T05:51:49;38.03;;;17.00;;
12412;SDS011;13877;18.896;-99.222;2023-04-01T05:54:17;35.78;;;17.27;;
12412;SDS011;13877;18.896;-99.222;2023-04-01T05:56:45;43.97;;;17.98;;
12412;SDS011;13877;18.896;-99.222;2023-04-01T05:59:12;42.80;;;17.65;;
12412;SDS011;13877;18.896;-99.222;2023-04-01T06:01:40;39.80;;;17.15;;
12412;SDS011;13877;18.896;-99.222;2023-04-01T06:04:10;40.97;;;17.20;;
12412;SDS011;13877;18.896;-99.222;2023-04-01T06:06:42;44.17;;;18.67;;
12412;SDS011;13877;18.896;-99.222;2023-04-01T06:28:38;53.95;;;17.08;;
12412;SDS011;13877;18.896;-99.222;2023-04-01T06:40:22;37.55;;;17.52;;
12412;SDS011;13877;18.896;-99.222;2023-04-01T06:46:30;37.25;;;17.85;;
12412;SDS011;13877;18.896;-99.222;2023-04-01T06:58:23;38.38;;;16.88;;
12412;SDS011;13877;18.896;-99.222;2023-04-01T07:01:00;45.17;;;16.55;;
12412;SDS011;13877;18.896;-99.222;2023-04-01T07:03:40;36.63;;;16.35;;
12412;SDS011;13877;18.896;-99.222;2023-04-01T07:06:13;43.75;;;15.90;;
12412;SDS011;13877;18.896;-99.222;2023-04-01T07:09:05;45.42;;;15.88;;
12412;SDS011;13877;18.896;-99.222;2023-04-01T07:11:56;37.10;;;15.75;;
12412;SDS011;13877;18.896;-99.222;2023-04-01T07:14:54;37.15;;;15.55;;
12412;SDS011;13877;18.896;-99.222;2023-04-01T07:17:25;40.30;;;16.33;;
12412;SDS011;13877;18.896;-99.222;2023-04-01T07:22:51;41.47;;;16.65;;
12412;SDS011;13877;18.896;-99.222;2023-04-01T07:25:45;36.58;;;15.73;;
12412;SDS011;13877;18.896;-99.222;2023-04-01T07:28:35;37.40;;;14.40;;
12412;SDS011;13877;18.896;-99.222;2023-04-01T07:34:01;28.73;;;13.27;;
12412;SDS011;13877;18.896;-99.222;2023-04-01T07:42:33;36.17;;;12.98;;
12412;SDS011;13877;18.896;-99.222;2023-04-01T07:54:02;27.35;;;12.85;;
12412;SDS011;13877;18.896;-99.222;2023-04-01T08:05:54;33.65;;;13.73;;
12412;SDS011;13877;18.896;-99.222;2023-04-01T08:08:32;27.73;;;13.07;;
12412;SDS011;13877;18.896;-99.222;2023-04-01T08:11:44;34.63;;;13.25;;
12412;SDS011;13877;18.896;-99.222;2023-04-01T08:21:02;38.40;;;13.93;;
12412;SDS011;13877;18.896;-99.222;2023-04-01T08:23:41;30.75;;;13.25;;
12412;SDS011;13877;18.896;-99.222;2023-04-01T08:26:19;36.28;;;13.73;;
12412;SDS011;13877;18.896;-99.222;2023-04-01T08:29:12;31.05;;;13.18;;
12412;SDS011;13877;18.896;-99.222;2023-04-01T08:34:28;36.10;;;14.63;;
12412;SDS011;13877;18.896;-99.222;2023-04-01T08:37:21;33.33;;;14.68;;
12412;SDS011;13877;18.896;-99.222;2023-04-01T08:40:00;32.30;;;13.43;;
12412;SDS011;13877;18.896;-99.222;2023-04-01T08:45:42;36.75;;;13.95;;
12412;SDS011;13877;18.896;-99.222;2023-04-01T08:48:33;35.60;;;14.35;;
12412;SDS011;13877;18.896;-99.222;2023-04-01T08:57:45;26.67;;;14.10;;
12412;SDS011;13877;18.896;-99.222;2023-04-01T09:00:53;34.05;;;13.88;;
12412;SDS011;13877;18.896;-99.222;2023-04-01T09:06:24;39.33;;;15.45;;
12412;SDS011;13877;18.896;-99.222;2023-04-01T09:17:37;42.35;;;15.13;;
12412;SDS011;13877;18.896;-99.222;2023-04-01T09:23:28;23.65;;;13.70;;
12412;SDS011;13877;18.896;-99.222;2023-04-01T09:26:08;31.58;;;13.45;;
12412;SDS011;13877;18.896;-99.222;2023-04-01T09:32:04;31.88;;;13.70;;
12412;SDS011;13877;18.896;-99.222;2023-04-01T09:37:33;32.38;;;13.68;;
12412;SDS011;13877;18.896;-99.222;2023-04-01T09:40:24;26.75;;;13.93;;
12412;SDS011;13877;18.896;-99.222;2023-04-01T10:06:47;27.73;;;12.90;;
12412;SDS011;13877;18.896;-99.222;2023-04-01T10:09:51;28.38;;;13.10;;
12412;SDS011;13877;18.896;-99.222;2023-04-01T10:21:08;27.08;;;12.13;;
12412;SDS011;13877;18.896;-99.222;2023-04-01T10:24:08;29.25;;;11.93;;
12412;SDS011;13877;18.896;-99.222;2023-04-01T10:35:34;35.78;;;12.38;;
12412;SDS011;13877;18.896;-99.222;2023-04-01T10:41:46;22.13;;;11.30;;
12412;SDS011;13877;18.896;-99.222;2023-04-01T10:56:29;25.42;;;11.50;;
12412;SDS011;13877;18.896;-99.222;2023-04-01T11:03:30;26.00;;;12.60;;
12412;SDS011;13877;18.896;-99.222;2023-04-01T11:09:27;28.30;;;12.10;;
12412;SDS011;13877;18.896;-99.222;2023-04-01T11:15:11;27.80;;;12.15;;
12412;SDS011;13877;18.896;-99.222;2023-04-01T11:35:07;26.20;;;12.10;;
12412;SDS011;13877;18.896;-99.222;2023-04-01T11:49:59;29.58;;;13.13;;
12412;SDS011;13877;18.896;-99.222;2023-04-01T11:55:45;29.20;;;12.77;;
12412;SDS011;13877;18.896;-99.222;2023-04-01T12:12:38;29.80;;;13.40;;
12412;SDS011;13877;18.896;-99.222;2023-04-01T12:15:30;33.33;;;14.18;;
12412;SDS011;13877;18.896;-99.222;2023-04-01T12:20:54;35.88;;;14.63;;
12412;SDS011;13877;18.896;-99.222;2023-04-01T12:29:29;26.52;;;14.82;;
12412;SDS011;13877;18.896;-99.222;2023-04-01T12:32:15;35.85;;;15.23;;
12412;SDS011;13877;18.896;-99.222;2023-04-01T12:34:57;35.63;;;14.90;;
12412;SDS011;13877;18.896;-99.222;2023-04-01T12:43:12;41.30;;;15.13;;
12412;SDS011;13877;18.896;-99.222;2023-04-01T12:49:00;24.40;;;13.63;;
12412;SDS011;13877;18.896;-99.222;2023-04-01T12:54:41;24.63;;;14.25;;
12412;SDS011;13877;18.896;-99.222;2023-04-01T13:08:26;31.45;;;13.48;;
12412;SDS011;13877;18.896;-99.222;2023-04-01T13:10:53;32.28;;;14.75;;
12412;SDS011;13877;18.896;-99.222;2023-04-01T13:16:57;24.80;;;13.45;;
12412;SDS011;13877;18.896;-99.222;2023-04-01T13:22:34;28.63;;;12.25;;
12412;SDS011;13877;18.896;-99.222;2023-04-01T13:36:59;45.10;;;16.20;;
12412;SDS011;13877;18.896;-99.222;2023-04-01T13:39:52;36.03;;;14.75;;
12412;SDS011;13877;18.896;-99.222;2023-04-01T13:43:12;43.65;;;17.60;;
12412;SDS011;13877;18.896;-99.222;2023-04-01T13:59:34;30.65;;;12.95;;
12412;SDS011;13877;18.896;-99.222;2023-04-01T14:08:33;31.05;;;12.20;;
12412;SDS011;13877;18.896;-99.222;2023-04-01T14:23:04;37.22;;;13.55;;
12412;SDS011;13877;18.896;-99.222;2023-04-01T14:25:51;26.92;;;12.60;;
12412;SDS011;13877;18.896;-99.222;2023-04-01T14:28:27;28.63;;;12.65;;
12412;SDS011;13877;18.896;-99.222;2023-04-01T14:31:19;35.63;;;12.90;;
12412;SDS011;13877;18.896;-99.222;2023-04-01T14:55:52;24.23;;;10.30;;
12412;SDS011;13877;18.896;-99.222;2023-04-01T14:58:40;24.48;;;10.98;;
12412;SDS011;13877;18.896;-99.222;2023-04-01T15:01:31;17.98;;;9.60;;
12412;SDS011;13877;18.896;-99.222;2023-04-01T15:07:02;31.45;;;10.85;;
12412;SDS011;13877;18.896;-99.222;2023-04-01T15:09:59;27.48;;;11.45;;
12412;SDS011;13877;18.896;-99.222;2023-04-01T15:12:57;33.20;;;11.30;;
12412;SDS011;13877;18.896;-99.222;2023-04-01T15:18:38;28.48;;;10.55;;
12412;SDS011;13877;18.896;-99.222;2023-04-01T15:24:22;26.25;;;10.25;;
12412;SDS011;13877;18.896;-99.222;2023-04-01T15:35:14;24.23;;;11.02;;
12412;SDS011;13877;18.896;-99.222;2023-04-01T15:40:43;19.73;;;8.85;;
12412;SDS011;13877;18.896;-99.222;2023-04-01T15:53:55;20.40;;;10.50;;
12412;SDS011;13877;18.896;-99.222;2023-04-01T15:56:56;28.55;;;10.07;;
12412;SDS011;13877;18.896;-99.222;2023-04-01T16:11:37;35.15;;;12.35;;
12412;SDS011;13877;18.896;-99.222;2023-04-01T16:14:38;35.10;;;12.90;;
12412;SDS011;13877;18.896;-99.222;2023-04-01T16:20:27;35.60;;;12.25;;
12412;SDS011;13877;18.896;-99.222;2023-04-01T16:31:55;24.15;;;11.07;;
12412;SDS011;13877;18.896;-99.222;2023-04-01T16:35:35;32.95;;;11.30;;
12412;SDS011;13877;18.896;-99.222;2023-04-01T16:37:50;23.83;;;11.63;;
12412;SDS011;13877;18.896;-99.222;2023-04-01T16:43:19;33.85;;;11.88;;
12412;SDS011;13877;18.896;-99.222;2023-04-01T16:52:17;30.67;;;11.32;;
12412;SDS011;13877;18.896;-99.222;2023-04-01T16:56:53;29.00;;;11.27;;
12412;SDS011;13877;18.896;-99.222;2023-04-01T16:59:37;35.67;;;11.40;;
12412;SDS011;13877;18.896;-99.222;2023-04-01T17:02:12;37.05;;;12.57;;
12412;SDS011;13877;18.896;-99.222;2023-04-01T17:04:44;28.77;;;11.68;;
12412;SDS011;13877;18.896;-99.222;2023-04-01T17:07:28;24.88;;;11.30;;
12412;SDS011;13877;18.896;-99.222;2023-04-01T17:21:18;28.88;;;12.27;;
12412;SDS011;13877;18.896;-99.222;2023-04-01T17:26:58;27.10;;;10.77;;
12412;SDS011;13877;18.896;-99.222;2023-04-01T17:35:22;26.40;;;10.60;;
12412;SDS011;13877;18.896;-99.222;2023-04-01T17:40:54;28.55;;;11.57;;
12412;SDS011;13877;18.896;-99.222;2023-04-01T17:46:26;25.13;;;11.10;;
12412;SDS011;13877;18.896;-99.222;2023-04-01T17:52:31;19.60;;;10.60;;
12412;SDS011;13877;18.896;-99.222;2023-04-01T18:02:55;20.25;;;9.85;;
12412;SDS011;13877;18.896;-99.222;2023-04-01T18:05:51;21.45;;;9.63;;
12412;SDS011;13877;18.896;-99.222;2023-04-01T18:08:28;18.67;;;9.50;;
12412;SDS011;13877;18.896;-99.222;2023-04-01T18:11:08;27.20;;;10.95;;
12412;SDS011;13877;18.896;-99.222;2023-04-01T18:19:27;24.85;;;10.32;;
12412;SDS011;13877;18.896;-99.222;2023-04-01T18:27:51;22.52;;;10.00;;
12412;SDS011;13877;18.896;-99.222;2023-04-01T18:30:41;19.75;;;9.38;;
12412;SDS011;13877;18.896;-99.222;2023-04-01T18:33:18;23.98;;;9.68;;
12412;SDS011;13877;18.896;-99.222;2023-04-01T18:38:44;21.75;;;11.05;;
12412;SDS011;13877;18.896;-99.222;2023-04-01T18:44:36;18.35;;;10.13;;
12412;SDS011;13877;18.896;-99.222;2023-04-01T18:52:56;26.88;;;11.48;;
12412;SDS011;13877;18.896;-99.222;2023-04-01T18:55:47;17.85;;;9.60;;
12412;SDS011;13877;18.896;-99.222;2023-04-01T18:58:32;17.77;;;9.85;;
12412;SDS011;13877;18.896;-99.222;2023-04-01T19:02:08;26.30;;;9.52;;
12412;SDS011;13877;18.896;-99.222;2023-04-01T19:10:15;25.02;;;9.75;;
12412;SDS011;13877;18.896;-99.222;2023-04-01T19:19:05;15.23;;;8.75;;
12412;SDS011;13877;18.896;-99.222;2023-04-01T19:29:28;23.50;;;9.65;;
12412;SDS011;13877;18.896;-99.222;2023-04-01T19:37:51;24.08;;;9.25;;
12412;SDS011;13877;18.896;-99.222;2023-04-01T19:40:38;25.98;;;10.52;;
12412;SDS011;13877;18.896;-99.222;2023-04-01T19:49:03;22.55;;;9.68;;
12412;SDS011;13877;18.896;-99.222;2023-04-01T19:51:57;25.55;;;10.50;;
12412;SDS011;13877;18.896;-99.222;2023-04-01T20:00:52;24.95;;;9.68;;
12412;SDS011;13877;18.896;-99.222;2023-04-01T20:03:25;34.60;;;9.30;;
12412;SDS011;13877;18.896;-99.222;2023-04-01T20:06:00;28.13;;;9.57;;
12412;SDS011;13877;18.896;-99.222;2023-04-01T20:17:01;25.67;;;9.27;;
12412;SDS011;13877;18.896;-99.222;2023-04-01T20:34:56;22.42;;;10.05;;
12412;SDS011;13877;18.896;-99.222;2023-04-01T20:40:31;23.27;;;9.52;;
12412;SDS011;13877;18.896;-99.222;2023-04-01T20:43:23;14.07;;;8.68;;
12412;SDS011;13877;18.896;-99.222;2023-04-01T20:46:26;33.88;;;10.10;;
12412;SDS011;13877;18.896;-99.222;2023-04-01T20:51:53;27.40;;;9.48;;
12412;SDS011;13877;18.896;-99.222;2023-04-01T20:54:32;28.77;;;10.45;;
12412;SDS011;13877;18.896;-99.222;2023-04-01T20:57:11;25.50;;;9.13;;
12412;SDS011;13877;18.896;-99.222;2023-04-01T21:05:45;13.57;;;8.95;;
12412;SDS011;13877;18.896;-99.222;2023-04-01T21:46:07;14.02;;;7.88;;
12412;SDS011;13877;18.896;-99.222;2023-04-01T22:14:52;13.82;;;7.60;;
12412;SDS011;13877;18.896;-99.222;2023-04-01T22:18:09;12.95;;;7.57;;
12412;SDS011;13877;18.896;-99.222;2023-04-01T22:27:46;21.67;;;7.65;;
12412;SDS011;13877;18.896;-99.222;2023-04-01T22:29:53;16.50;;;7.40;;
12412;SDS011;13877;18.896;-99.222;2023-04-01T22:32:28;13.13;;;7.07;;
12412;SDS011;13877;18.896;-99.222;2023-04-01T22:43:39;12.35;;;6.50;;
12412;SDS011;13877;18.896;-99.222;2023-04-01T22:46:25;9.68;;;5.57;;
12412;SDS011;13877;18.896;-99.222;2023-04-01T22:49:20;15.70;;;6.05;;
12412;SDS011;13877;18.896;-99.222;2023-04-01T22:51:50;8.95;;;6.60;;
12412;SDS011;13877;18.896;-99.222;2023-04-01T23:00:07;17.63;;;7.80;;
12412;SDS011;13877;18.896;-99.222;2023-04-01T23:02:47;15.75;;;6.05;;
12412;SDS011;13877;18.896;-99.222;2023-04-01T23:05:17;12.95;;;6.63;;
12412;SDS011;13877;18.896;-99.222;2023-04-01T23:07:56;16.42;;;5.88;;
12412;SDS011;13877;18.896;-99.222;2023-04-01T23:10:49;13.77;;;6.45;;
12412;SDS011;13877;18.896;-99.222;2023-04-01T23:13:29;12.98;;;6.03;;
12412;SDS011;13877;18.896;-99.222;2023-04-01T23:16:25;14.57;;;5.43;;
12412;SDS011;13877;18.896;-99.222;2023-04-01T23:21:55;13.95;;;5.50;;
12412;SDS011;13877;18.896;-99.222;2023-04-01T23:24:47;10.52;;;6.75;;
12412;SDS011;13877;18.896;-99.222;2023-04-01T23:27:31;19.38;;;5.47;;
12412;SDS011;13877;18.896;-99.222;2023-04-01T23:33:49;8.00;;;5.05;;
12412;SDS011;13877;18.896;-99.222;2023-04-01T23:36:10;12.38;;;5.40;;
12412;SDS011;13877;18.896;-99.222;2023-04-01T23:38:40;10.45;;;5.25;;
12412;SDS011;13877;18.896;-99.222;2023-04-01T23:41:20;8.73;;;5.05;;
12412;SDS011;13877;18.896;-99.222;2023-04-01T23:43:57;11.32;;;5.60;;
12412;SDS011;13877;18.896;-99.222;2023-04-01T23:46:31;11.90;;;5.50;;
12412;SDS011;13877;18.896;-99.222;2023-04-01T23:49:00;12.30;;;5.38;;
12412;SDS011;13877;18.896;-99.222;2023-04-01T23:51:35;7.53;;;4.97;;
12412;SDS011;13877;18.896;-99.222;2023-04-01T23:54:13;9.45;;;5.40;;
12412;SDS011;13877;18.896;-99.222;2023-04-01T23:56:48;11.00;;;5.13;;
12412;SDS011;13877;18.896;-99.222;2023-04-01T23:59:30;8.40;;;4.90;;
